sensor_id;sensor_type;location;lat;lon;timestamp;noise_LAeq;noise_LA_min;noise_LA_max;noise_LA01;noise_LA95
60503;Laerm;51448;51.660;5.824;2023-08-20T00:02:08;45.68;29.67;58.92;;
60503;Laerm;51448;51.660;5.824;2023-08-20T00:04:36;44.60;29.82;58.19;;
60503;Laerm;51448;51.660;5.824;2023-08-20T00:07:05;44.31;29.30;58.31;;
60503;Laerm;51448;51.660;5.824;2023-08-20T00:09:33;44.63;29.40;57.68;;
60503;Laerm;51448;51.660;5.824;2023-08-20T00:12:00;45.52;29.96;58.30;;
60503;Laerm;51448;51.660;5.824;2023-08-20T00:14:54;44.34;29.54;58.01;;
60503;Laerm;51448;51.660;5.824;2023-08-20T00:17:22;44.94;29.34;58.70;;
60503;Laerm;51448;51.660;5.824;2023-08-20T00:19:53;44.51;29.07;58.36;;
60503;Laerm;51448;51.660;5.824;2023-08-20T00:22:25;45.34;29.10;57.48;;
60503;Laerm;51448;51.660;5.824;2023-08-20T00:24:54;47.09;29.25;59.56;;
60503;Laerm;51448;51.660;5.824;2023-08-20T00:27:21;45.85;29.11;58.97;;
60503;Laerm;51448;51.660;5.824;2023-08-20T00:29:49;46.78;30.18;58.98;;
60503;Laerm;51448;51.660;5.824;2023-08-20T00:32:16;44.35;29.03;57.43;;
60503;Laerm;51448;51.660;5.824;2023-08-20T00:34:44;46.45;29.03;59.31;;
60503;Laerm;51448;51.660;5.824;2023-08-20T00:37:12;46.34;29.21;59.00;;
60503;Laerm;51448;51.660;5.824;2023-08-20T00:39:39;45.67;28.85;57.92;;
60503;Laerm;51448;51.660;5.824;2023-08-20T00:42:07;47.71;29.45;60.42;;
60503;Laerm;51448;51.660;5.824;2023-08-20T00:44:35;47.05;29.08;59.90;;
60503;Laerm;51448;51.660;5.824;2023-08-20T00:47:04;45.56;28.76;57.87;;
60503;Laerm;51448;51.660;5.824;2023-08-20T00:49:32;45.50;28.87;57.86;;
60503;Laerm;51448;51.660;5.824;2023-08-20T00:52:00;46.66;28.57;59.68;;
60503;Laerm;51448;51.660;5.824;2023-08-20T00:54:29;45.37;28.59;58.58;;
60503;Laerm;51448;51.660;5.824;2023-08-20T00:56:59;44.10;28.65;57.78;;
60503;Laerm;51448;51.660;5.824;2023-08-20T00:59:29;43.42;28.68;57.49;;
60503;Laerm;51448;51.660;5.824;2023-08-20T01:01:57;44.38;28.06;57.69;;
60503;Laerm;51448;51.660;5.824;2023-08-20T01:04:25;43.40;28.41;57.90;;
60503;Laerm;51448;51.660;5.824;2023-08-20T01:07:17;44.20;28.43;58.27;;
60503;Laerm;51448;51.660;5.824;2023-08-20T01:12:45;44.55;28.02;58.52;;
60503;Laerm;51448;51.660;5.824;2023-08-20T01:15:13;44.99;28.37;59.15;;
60503;Laerm;51448;51.660;5.824;2023-08-20T01:17:43;44.88;28.42;58.08;;
60503;Laerm;51448;51.660;5.824;2023-08-20T01:20:14;43.98;28.49;63.66;;
60503;Laerm;51448;51.660;5.824;2023-08-20T01:23:24;43.82;28.49;57.68;;
60503;Laerm;51448;51.660;5.824;2023-08-20T01:26:25;43.08;28.86;57.89;;
60503;Laerm;51448;51.660;5.824;2023-08-20T01:28:59;44.32;29.40;57.92;;
60503;Laerm;51448;51.660;5.824;2023-08-20T01:31:27;44.56;29.19;58.44;;
60503;Laerm;51448;51.660;5.824;2023-08-20T01:33:56;45.36;29.29;58.34;;
60503;Laerm;51448;51.660;5.824;2023-08-20T01:36:25;46.07;28.92;59.23;;
60503;Laerm;51448;51.660;5.824;2023-08-20T01:38:52;45.06;29.00;58.35;;
60503;Laerm;51448;51.660;5.824;2023-08-20T01:41:20;45.99;28.78;57.82;;
60503;Laerm;51448;51.660;5.824;2023-08-20T01:43:47;46.35;28.19;59.58;;
60503;Laerm;51448;51.660;5.824;2023-08-20T01:46:15;46.04;28.44;58.77;;
60503;Laerm;51448;51.660;5.824;2023-08-20T01:48:42;44.49;28.35;57.66;;
60503;Laerm;51448;51.660;5.824;2023-08-20T01:51:10;44.98;27.93;57.38;;
60503;Laerm;51448;51.660;5.824;2023-08-20T01:53:37;46.16;27.83;59.09;;
60503;Laerm;51448;51.660;5.824;2023-08-20T01:56:11;44.36;27.60;62.99;;
60503;Laerm;51448;51.660;5.824;2023-08-20T01:58:40;44.20;28.05;57.13;;
60503;Laerm;51448;51.660;5.824;2023-08-20T02:01:08;44.52;27.71;56.99;;
60503;Laerm;51448;51.660;5.824;2023-08-20T02:03:36;45.30;28.09;58.82;;
60503;Laerm;51448;51.660;5.824;2023-08-20T02:06:07;44.56;28.40;57.66;;
60503;Laerm;51448;51.660;5.824;2023-08-20T02:08:35;44.73;28.15;57.53;;
60503;Laerm;51448;51.660;5.824;2023-08-20T02:11:04;44.71;27.78;57.11;;
60503;Laerm;51448;51.660;5.824;2023-08-20T02:13:32;45.82;27.88;58.28;;
60503;Laerm;51448;51.660;5.824;2023-08-20T02:16:03;44.03;27.92;56.97;;
60503;Laerm;51448;51.660;5.824;2023-08-20T02:18:32;46.35;28.00;58.38;;
60503;Laerm;51448;51.660;5.824;2023-08-20T02:21:01;45.53;28.12;57.42;;
60503;Laerm;51448;51.660;5.824;2023-08-20T02:23:30;45.55;27.90;57.91;;
60503;Laerm;51448;51.660;5.824;2023-08-20T02:25:58;45.00;28.29;57.40;;
60503;Laerm;51448;51.660;5.824;2023-08-20T02:28:29;44.44;27.93;57.27;;
60503;Laerm;51448;51.660;5.824;2023-08-20T02:30:56;45.84;28.18;58.11;;
60503;Laerm;51448;51.660;5.824;2023-08-20T02:33:25;44.94;28.16;56.97;;
60503;Laerm;51448;51.660;5.824;2023-08-20T02:35:52;45.42;27.89;57.77;;
60503;Laerm;51448;51.660;5.824;2023-08-20T02:38:21;46.48;27.86;59.16;;
60503;Laerm;51448;51.660;5.824;2023-08-20T02:40:49;45.30;27.52;58.17;;
60503;Laerm;51448;51.660;5.824;2023-08-20T02:43:20;44.30;27.98;56.57;;
60503;Laerm;51448;51.660;5.824;2023-08-20T02:45:47;44.45;27.51;57.98;;
60503;Laerm;51448;51.660;5.824;2023-08-20T02:48:16;42.87;27.60;56.57;;
60503;Laerm;51448;51.660;5.824;2023-08-20T02:50:43;43.34;27.80;56.42;;
60503;Laerm;51448;51.660;5.824;2023-08-20T02:53:11;44.91;28.08;56.68;;
60503;Laerm;51448;51.660;5.824;2023-08-20T02:55:38;44.10;28.23;56.70;;
60503;Laerm;51448;51.660;5.824;2023-08-20T02:58:06;45.23;28.12;57.18;;
60503;Laerm;51448;51.660;5.824;2023-08-20T03:00:36;45.23;27.95;57.92;;
60503;Laerm;51448;51.660;5.824;2023-08-20T03:03:05;45.17;28.18;57.25;;
60503;Laerm;51448;51.660;5.824;2023-08-20T03:05:36;36.84;28.43;47.14;;
60503;Laerm;51448;51.660;5.824;2023-08-20T03:08:04;41.32;28.33;56.65;;
60503;Laerm;51448;51.660;5.824;2023-08-20T03:10:33;44.09;28.31;57.20;;
60503;Laerm;51448;51.660;5.824;2023-08-20T03:13:02;43.19;28.14;56.50;;
60503;Laerm;51448;51.660;5.824;2023-08-20T03:15:30;44.18;28.20;57.25;;
60503;Laerm;51448;51.660;5.824;2023-08-20T03:17:58;46.23;28.38;59.23;;
60503;Laerm;51448;51.660;5.824;2023-08-20T03:20:25;43.34;28.15;57.56;;
60503;Laerm;51448;51.660;5.824;2023-08-20T03:22:55;45.40;28.65;57.66;;
60503;Laerm;51448;51.660;5.824;2023-08-20T03:25:23;46.34;28.21;58.93;;
60503;Laerm;51448;51.660;5.824;2023-08-20T03:27:52;44.93;28.25;57.33;;
60503;Laerm;51448;51.660;5.824;2023-08-20T03:30:19;46.76;28.16;59.01;;
60503;Laerm;51448;51.660;5.824;2023-08-20T03:32:47;44.85;28.29;58.28;;
60503;Laerm;51448;51.660;5.824;2023-08-20T03:35:15;44.80;28.16;57.39;;
60503;Laerm;51448;51.660;5.824;2023-08-20T03:37:43;46.30;28.01;59.24;;
60503;Laerm;51448;51.660;5.824;2023-08-20T03:40:12;46.60;28.13;60.18;;
60503;Laerm;51448;51.660;5.824;2023-08-20T03:42:39;43.87;28.25;57.22;;
60503;Laerm;51448;51.660;5.824;2023-08-20T03:45:07;43.54;28.40;56.53;;
60503;Laerm;51448;51.660;5.824;2023-08-20T03:47:35;44.64;28.23;57.53;;
60503;Laerm;51448;51.660;5.824;2023-08-20T03:50:05;45.61;28.45;58.04;;
60503;Laerm;51448;51.660;5.824;2023-08-20T03:52:32;46.07;28.16;59.83;;
60503;Laerm;51448;51.660;5.824;2023-08-20T03:55:02;46.42;28.46;61.06;;
60503;Laerm;51448;51.660;5.824;2023-08-20T03:57:30;45.42;28.55;57.93;;
60503;Laerm;51448;51.660;5.824;2023-08-20T03:59:57;46.45;28.44;59.22;;
60503;Laerm;51448;51.660;5.824;2023-08-20T04:02:25;46.37;29.01;59.46;;
60503;Laerm;51448;51.660;5.824;2023-08-20T04:04:53;45.15;28.41;58.87;;
60503;Laerm;51448;51.660;5.824;2023-08-20T04:07:21;44.41;28.68;64.50;;
60503;Laerm;51448;51.660;5.824;2023-08-20T04:09:48;44.74;28.48;57.71;;
60503;Laerm;51448;51.660;5.824;2023-08-20T04:12:16;44.83;28.76;57.78;;
60503;Laerm;51448;51.660;5.824;2023-08-20T04:14:43;46.39;28.51;58.35;;
60503;Laerm;51448;51.660;5.824;2023-08-20T04:17:20;47.29;28.85;59.65;;
60503;Laerm;51448;51.660;5.824;2023-08-20T04:19:47;45.78;28.40;59.20;;
60503;Laerm;51448;51.660;5.824;2023-08-20T04:22:15;45.10;28.71;58.54;;
60503;Laerm;51448;51.660;5.824;2023-08-20T04:24:46;45.74;29.76;60.06;;
60503;Laerm;51448;51.660;5.824;2023-08-20T04:27:23;46.70;29.31;60.77;;
60503;Laerm;51448;51.660;5.824;2023-08-20T04:29:51;44.88;28.75;58.85;;
60503;Laerm;51448;51.660;5.824;2023-08-20T04:32:20;44.71;29.02;59.02;;
60503;Laerm;51448;51.660;5.824;2023-08-20T04:34:49;46.46;29.47;58.00;;
60503;Laerm;51448;51.660;5.824;2023-08-20T04:37:20;52.12;30.09;67.93;;
60503;Laerm;51448;51.660;5.824;2023-08-20T04:39:48;44.60;29.20;58.79;;
60503;Laerm;51448;51.660;5.824;2023-08-20T04:42:16;45.68;29.79;59.13;;
60503;Laerm;51448;51.660;5.824;2023-08-20T04:44:45;47.75;29.15;59.92;;
60503;Laerm;51448;51.660;5.824;2023-08-20T04:47:13;46.13;29.61;58.23;;
60503;Laerm;51448;51.660;5.824;2023-08-20T04:49:40;54.54;29.42;83.95;;
60503;Laerm;51448;51.660;5.824;2023-08-20T04:52:08;47.30;28.77;59.52;;
60503;Laerm;51448;51.660;5.824;2023-08-20T04:54:36;45.82;29.09;57.74;;
60503;Laerm;51448;51.660;5.824;2023-08-20T04:57:04;47.88;29.31;59.88;;
60503;Laerm;51448;51.660;5.824;2023-08-20T04:59:31;45.83;29.20;59.65;;
60503;Laerm;51448;51.660;5.824;2023-08-20T05:01:59;45.44;29.57;58.31;;
60503;Laerm;51448;51.660;5.824;2023-08-20T05:04:45;45.55;29.36;60.63;;
60503;Laerm;51448;51.660;5.824;2023-08-20T05:07:13;45.98;30.01;59.42;;
60503;Laerm;51448;51.660;5.824;2023-08-20T05:09:41;45.40;28.99;58.91;;
60503;Laerm;51448;51.660;5.824;2023-08-20T05:12:09;45.91;29.56;59.16;;
60503;Laerm;51448;51.660;5.824;2023-08-20T05:14:37;46.47;29.69;59.35;;
60503;Laerm;51448;51.660;5.824;2023-08-20T05:17:05;45.91;29.51;58.77;;
60503;Laerm;51448;51.660;5.824;2023-08-20T05:19:33;45.37;29.70;58.93;;
60503;Laerm;51448;51.660;5.824;2023-08-20T05:22:00;46.44;29.25;59.29;;
60503;Laerm;51448;51.660;5.824;2023-08-20T05:24:32;46.10;29.43;59.06;;
60503;Laerm;51448;51.660;5.824;2023-08-20T05:27:12;46.21;29.35;61.96;;
60503;Laerm;51448;51.660;5.824;2023-08-20T05:29:44;46.99;29.25;59.41;;
60503;Laerm;51448;51.660;5.824;2023-08-20T05:32:12;46.65;29.03;60.33;;
60503;Laerm;51448;51.660;5.824;2023-08-20T05:34:39;45.81;29.29;62.30;;
60503;Laerm;51448;51.660;5.824;2023-08-20T05:37:07;45.87;29.33;58.36;;
60503;Laerm;51448;51.660;5.824;2023-08-20T05:39:42;46.17;29.00;66.34;;
60503;Laerm;51448;51.660;5.824;2023-08-20T05:42:10;45.71;29.26;58.92;;
60503;Laerm;51448;51.660;5.824;2023-08-20T05:44:42;45.53;29.71;58.53;;
60503;Laerm;51448;51.660;5.824;2023-08-20T05:47:13;46.87;29.19;58.16;;
60503;Laerm;51448;51.660;5.824;2023-08-20T05:49:44;47.75;29.56;60.59;;
60503;Laerm;51448;51.660;5.824;2023-08-20T05:52:12;45.18;29.57;58.85;;
60503;Laerm;51448;51.660;5.824;2023-08-20T05:54:41;46.47;29.80;58.84;;
60503;Laerm;51448;51.660;5.824;2023-08-20T05:57:09;48.63;29.32;59.86;;
60503;Laerm;51448;51.660;5.824;2023-08-20T05:59:37;51.19;29.86;74.08;;
60503;Laerm;51448;51.660;5.824;2023-08-20T06:02:04;50.60;29.22;73.79;;
60503;Laerm;51448;51.660;5.824;2023-08-20T06:04:32;46.11;29.66;58.59;;
60503;Laerm;51448;51.660;5.824;2023-08-20T06:07:00;48.89;31.75;67.38;;
60503;Laerm;51448;51.660;5.824;2023-08-20T06:09:27;47.03;29.52;63.10;;
60503;Laerm;51448;51.660;5.824;2023-08-20T06:11:55;45.85;29.61;58.95;;
60503;Laerm;51448;51.660;5.824;2023-08-20T06:14:23;46.21;28.83;59.16;;
60503;Laerm;51448;51.660;5.824;2023-08-20T06:16:51;46.16;30.13;61.11;;
60503;Laerm;51448;51.660;5.824;2023-08-20T06:19:18;45.91;30.09;66.07;;
60503;Laerm;51448;51.660;5.824;2023-08-20T06:21:46;46.50;29.18;58.39;;
60503;Laerm;51448;51.660;5.824;2023-08-20T06:24:13;62.32;29.52;84.69;;
60503;Laerm;51448;51.660;5.824;2023-08-20T06:26:41;46.77;28.85;64.43;;
60503;Laerm;51448;51.660;5.824;2023-08-20T06:29:11;44.91;28.87;56.79;;
60503;Laerm;51448;51.660;5.824;2023-08-20T06:31:38;45.64;28.83;58.74;;
60503;Laerm;51448;51.660;5.824;2023-08-20T06:34:06;47.02;29.15;56.98;;
60503;Laerm;51448;51.660;5.824;2023-08-20T06:36:33;45.55;28.94;56.89;;
60503;Laerm;51448;51.660;5.824;2023-08-20T06:39:02;46.17;29.74;58.48;;
60503;Laerm;51448;51.660;5.824;2023-08-20T06:41:30;45.09;29.49;57.18;;
60503;Laerm;51448;51.660;5.824;2023-08-20T06:43:58;46.68;30.53;58.03;;
60503;Laerm;51448;51.660;5.824;2023-08-20T06:46:25;47.48;29.92;65.34;;
60503;Laerm;51448;51.660;5.824;2023-08-20T06:48:53;48.72;37.99;57.62;;
60503;Laerm;51448;51.660;5.824;2023-08-20T06:51:21;46.90;36.36;56.97;;
60503;Laerm;51448;51.660;5.824;2023-08-20T06:53:49;48.79;32.21;66.02;;
60503;Laerm;51448;51.660;5.824;2023-08-20T06:56:17;50.10;29.62;71.65;;
60503;Laerm;51448;51.660;5.824;2023-08-20T06:58:44;43.98;29.65;55.77;;
60503;Laerm;51448;51.660;5.824;2023-08-20T07:01:12;45.81;30.32;57.45;;
60503;Laerm;51448;51.660;5.824;2023-08-20T07:03:42;44.59;30.00;56.93;;
60503;Laerm;51448;51.660;5.824;2023-08-20T07:06:11;45.36;30.29;58.48;;
60503;Laerm;51448;51.660;5.824;2023-08-20T07:08:38;45.09;29.54;56.72;;
60503;Laerm;51448;51.660;5.824;2023-08-20T07:11:07;44.16;30.30;65.44;;
60503;Laerm;51448;51.660;5.824;2023-08-20T07:13:35;45.28;29.94;57.15;;
60503;Laerm;51448;51.660;5.824;2023-08-20T07:16:03;43.80;29.79;57.05;;
60503;Laerm;51448;51.660;5.824;2023-08-20T07:18:31;41.67;29.33;53.74;;
60503;Laerm;51448;51.660;5.824;2023-08-20T07:20:58;46.78;29.09;59.27;;
60503;Laerm;51448;51.660;5.824;2023-08-20T07:23:26;41.78;29.18;56.07;;
60503;Laerm;51448;51.660;5.824;2023-08-20T07:26:09;43.25;29.52;56.10;;
60503;Laerm;51448;51.660;5.824;2023-08-20T07:28:38;42.37;29.25;55.00;;
60503;Laerm;51448;51.660;5.824;2023-08-20T07:31:32;44.88;29.76;70.56;;
60503;Laerm;51448;51.660;5.824;2023-08-20T07:34:02;44.48;29.41;57.73;;
60503;Laerm;51448;51.660;5.824;2023-08-20T07:36:33;45.22;30.32;56.85;;
60503;Laerm;51448;51.660;5.824;2023-08-20T07:39:02;41.61;29.31;52.54;;
60503;Laerm;51448;51.660;5.824;2023-08-20T07:41:30;41.85;29.29;52.57;;
60503;Laerm;51448;51.660;5.824;2023-08-20T07:43:58;39.96;28.92;51.98;;
60503;Laerm;51448;51.660;5.824;2023-08-20T07:46:25;43.92;29.72;53.52;;
60503;Laerm;51448;51.660;5.824;2023-08-20T07:48:53;44.29;29.61;58.35;;
60503;Laerm;51448;51.660;5.824;2023-08-20T07:51:21;41.41;29.13;54.58;;
60503;Laerm;51448;51.660;5.824;2023-08-20T07:53:49;41.60;29.97;52.79;;
60503;Laerm;51448;51.660;5.824;2023-08-20T07:56:16;41.05;29.10;54.36;;
60503;Laerm;51448;51.660;5.824;2023-08-20T07:58:44;40.26;29.26;53.56;;
60503;Laerm;51448;51.660;5.824;2023-08-20T08:01:12;39.19;29.15;49.34;;
60503;Laerm;51448;51.660;5.824;2023-08-20T08:03:41;41.68;29.22;53.21;;
60503;Laerm;51448;51.660;5.824;2023-08-20T08:06:08;44.41;29.72;58.79;;
60503;Laerm;51448;51.660;5.824;2023-08-20T08:08:41;44.11;29.54;57.71;;
60503;Laerm;51448;51.660;5.824;2023-08-20T08:11:09;42.83;30.74;56.25;;
60503;Laerm;51448;51.660;5.824;2023-08-20T08:13:36;37.96;29.74;51.05;;
60503;Laerm;51448;51.660;5.824;2023-08-20T08:16:04;41.84;29.39;55.37;;
60503;Laerm;51448;51.660;5.824;2023-08-20T08:18:32;41.93;29.57;50.22;;
60503;Laerm;51448;51.660;5.824;2023-08-20T08:20:59;40.26;29.11;53.39;;
60503;Laerm;51448;51.660;5.824;2023-08-20T08:23:28;39.69;29.85;54.50;;
60503;Laerm;51448;51.660;5.824;2023-08-20T08:25:55;43.70;31.11;54.30;;
60503;Laerm;51448;51.660;5.824;2023-08-20T08:28:23;39.53;30.97;62.65;;
60503;Laerm;51448;51.660;5.824;2023-08-20T08:30:50;40.37;30.85;55.96;;
60503;Laerm;51448;51.660;5.824;2023-08-20T08:33:18;43.95;29.90;62.01;;
60503;Laerm;51448;51.660;5.824;2023-08-20T08:35:45;49.68;30.47;63.57;;
60503;Laerm;51448;51.660;5.824;2023-08-20T08:38:13;40.23;29.81;56.31;;
60503;Laerm;51448;51.660;5.824;2023-08-20T08:40:42;44.40;29.84;56.35;;
60503;Laerm;51448;51.660;5.824;2023-08-20T08:43:10;43.83;30.14;56.71;;
60503;Laerm;51448;51.660;5.824;2023-08-20T08:45:47;42.68;29.83;55.67;;
60503;Laerm;51448;51.660;5.824;2023-08-20T08:48:18;40.15;30.22;54.22;;
60503;Laerm;51448;51.660;5.824;2023-08-20T08:50:49;42.94;29.46;60.03;;
60503;Laerm;51448;51.660;5.824;2023-08-20T08:53:18;45.39;29.42;70.17;;
60503;Laerm;51448;51.660;5.824;2023-08-20T08:55:46;43.61;30.68;56.14;;
60503;Laerm;51448;51.660;5.824;2023-08-20T08:58:15;40.02;31.02;49.67;;
60503;Laerm;51448;51.660;5.824;2023-08-20T09:00:42;44.69;30.89;70.37;;
60503;Laerm;51448;51.660;5.824;2023-08-20T09:03:10;47.73;30.26;68.21;;
60503;Laerm;51448;51.660;5.824;2023-08-20T09:06:10;42.67;30.08;64.46;;
60503;Laerm;51448;51.660;5.824;2023-08-20T09:08:38;38.75;29.87;55.82;;
60503;Laerm;51448;51.660;5.824;2023-08-20T09:11:05;41.89;29.89;55.42;;
60503;Laerm;51448;51.660;5.824;2023-08-20T09:13:41;41.14;30.98;54.80;;
60503;Laerm;51448;51.660;5.824;2023-08-20T09:16:11;39.39;30.33;56.78;;
60503;Laerm;51448;51.660;5.824;2023-08-20T09:18:41;43.83;31.05;57.82;;
60503;Laerm;51448;51.660;5.824;2023-08-20T09:21:11;43.63;31.87;56.28;;
60503;Laerm;51448;51.660;5.824;2023-08-20T09:23:39;48.03;32.31;61.63;;
60503;Laerm;51448;51.660;5.824;2023-08-20T09:26:07;37.84;30.35;57.10;;
60503;Laerm;51448;51.660;5.824;2023-08-20T09:28:44;43.55;30.24;56.20;;
60503;Laerm;51448;51.660;5.824;2023-08-20T09:31:13;45.95;31.85;61.42;;
60503;Laerm;51448;51.660;5.824;2023-08-20T09:33:51;39.83;31.57;50.87;;
60503;Laerm;51448;51.660;5.824;2023-08-20T09:36:30;43.25;30.65;58.14;;
60503;Laerm;51448;51.660;5.824;2023-08-20T09:38:57;43.19;31.49;55.71;;
60503;Laerm;51448;51.660;5.824;2023-08-20T09:41:25;41.75;30.79;53.17;;
60503;Laerm;51448;51.660;5.824;2023-08-20T09:43:57;43.36;31.26;53.86;;
60503;Laerm;51448;51.660;5.824;2023-08-20T09:46:27;45.16;30.18;69.67;;
60503;Laerm;51448;51.660;5.824;2023-08-20T09:48:58;46.53;31.53;55.83;;
60503;Laerm;51448;51.660;5.824;2023-08-20T09:51:28;45.06;31.89;57.48;;
60503;Laerm;51448;51.660;5.824;2023-08-20T09:54:19;45.29;31.14;56.88;;
60503;Laerm;51448;51.660;5.824;2023-08-20T09:56:58;45.90;30.90;59.03;;
60503;Laerm;51448;51.660;5.824;2023-08-20T09:59:28;44.07;30.60;54.66;;
60503;Laerm;51448;51.660;5.824;2023-08-20T10:01:57;45.28;31.88;63.40;;
60503;Laerm;51448;51.660;5.824;2023-08-20T10:04:26;43.86;30.33;57.72;;
60503;Laerm;51448;51.660;5.824;2023-08-20T10:06:54;44.73;31.56;61.55;;
60503;Laerm;51448;51.660;5.824;2023-08-20T10:09:23;44.84;32.07;59.74;;
60503;Laerm;51448;51.660;5.824;2023-08-20T10:11:51;45.66;31.99;59.56;;
60503;Laerm;51448;51.660;5.824;2023-08-20T10:14:19;47.10;32.02;68.63;;
60503;Laerm;51448;51.660;5.824;2023-08-20T10:16:47;46.31;30.40;56.59;;
60503;Laerm;51448;51.660;5.824;2023-08-20T10:19:16;47.62;41.25;55.20;;
60503;Laerm;51448;51.660;5.824;2023-08-20T10:21:45;49.81;38.18;63.05;;
60503;Laerm;51448;51.660;5.824;2023-08-20T10:24:17;45.13;33.90;56.45;;
60503;Laerm;51448;51.660;5.824;2023-08-20T10:26:48;46.80;39.73;54.96;;
60503;Laerm;51448;51.660;5.824;2023-08-20T10:29:39;45.63;36.06;58.76;;
60503;Laerm;51448;51.660;5.824;2023-08-20T10:32:14;46.03;35.82;59.77;;
60503;Laerm;51448;51.660;5.824;2023-08-20T10:34:50;45.10;33.28;66.75;;
60503;Laerm;51448;51.660;5.824;2023-08-20T10:37:27;46.36;37.44;59.33;;
60503;Laerm;51448;51.660;5.824;2023-08-20T10:39:58;45.40;35.74;54.97;;
60503;Laerm;51448;51.660;5.824;2023-08-20T10:42:27;44.13;33.71;54.58;;
60503;Laerm;51448;51.660;5.824;2023-08-20T10:45:22;43.80;32.02;54.69;;
60503;Laerm;51448;51.660;5.824;2023-08-20T10:47:50;44.58;30.44;55.38;;
60503;Laerm;51448;51.660;5.824;2023-08-20T10:50:19;48.79;32.56;64.10;;
60503;Laerm;51448;51.660;5.824;2023-08-20T10:52:49;44.73;31.21;65.29;;
60503;Laerm;51448;51.660;5.824;2023-08-20T10:55:22;46.52;30.92;61.71;;
60503;Laerm;51448;51.660;5.824;2023-08-20T10:57:58;42.12;31.60;54.05;;
60503;Laerm;51448;51.660;5.824;2023-08-20T11:00:27;41.11;31.88;58.42;;
60503;Laerm;51448;51.660;5.824;2023-08-20T11:02:57;42.93;32.58;54.16;;
60503;Laerm;51448;51.660;5.824;2023-08-20T11:05:27;44.02;30.36;57.12;;
60503;Laerm;51448;51.660;5.824;2023-08-20T11:07:54;42.69;30.82;56.26;;
60503;Laerm;51448;51.660;5.824;2023-08-20T11:10:22;44.65;31.78;55.67;;
60503;Laerm;51448;51.660;5.824;2023-08-20T11:12:49;43.60;32.19;53.91;;
60503;Laerm;51448;51.660;5.824;2023-08-20T11:15:17;44.17;33.22;58.40;;
60503;Laerm;51448;51.660;5.824;2023-08-20T11:17:46;46.22;33.68;59.29;;
60503;Laerm;51448;51.660;5.824;2023-08-20T11:20:19;40.38;31.42;51.44;;
60503;Laerm;51448;51.660;5.824;2023-08-20T11:22:47;43.85;30.94;58.36;;
60503;Laerm;51448;51.660;5.824;2023-08-20T11:25:15;44.45;30.15;56.27;;
60503;Laerm;51448;51.660;5.824;2023-08-20T11:27:43;48.23;31.02;63.00;;
60503;Laerm;51448;51.660;5.824;2023-08-20T11:30:11;41.92;31.76;54.83;;
60503;Laerm;51448;51.660;5.824;2023-08-20T11:32:41;42.66;31.72;52.65;;
60503;Laerm;51448;51.660;5.824;2023-08-20T11:35:11;44.83;32.63;54.20;;
60503;Laerm;51448;51.660;5.824;2023-08-20T11:37:40;43.45;31.56;56.27;;
60503;Laerm;51448;51.660;5.824;2023-08-20T11:40:08;39.55;30.19;61.35;;
60503;Laerm;51448;51.660;5.824;2023-08-20T11:42:36;42.33;30.64;55.27;;
60503;Laerm;51448;51.660;5.824;2023-08-20T11:45:04;44.62;31.39;58.79;;
60503;Laerm;51448;51.660;5.824;2023-08-20T11:47:39;44.90;30.78;58.11;;
60503;Laerm;51448;51.660;5.824;2023-08-20T11:50:09;43.33;30.65;55.82;;
60503;Laerm;51448;51.660;5.824;2023-08-20T11:52:38;42.71;31.42;55.77;;
60503;Laerm;51448;51.660;5.824;2023-08-20T11:55:09;41.90;31.20;56.17;;
60503;Laerm;51448;51.660;5.824;2023-08-20T11:57:37;41.75;30.80;55.33;;
60503;Laerm;51448;51.660;5.824;2023-08-20T12:00:06;41.39;31.10;55.23;;
60503;Laerm;51448;51.660;5.824;2023-08-20T12:02:43;42.23;31.39;54.59;;
60503;Laerm;51448;51.660;5.824;2023-08-20T12:05:10;45.47;31.23;57.46;;
60503;Laerm;51448;51.660;5.824;2023-08-20T12:07:38;44.68;30.00;56.76;;
60503;Laerm;51448;51.660;5.824;2023-08-20T12:10:22;46.46;30.61;57.00;;
60503;Laerm;51448;51.660;5.824;2023-08-20T12:12:50;43.63;30.36;55.51;;
60503;Laerm;51448;51.660;5.824;2023-08-20T12:15:19;42.95;30.14;55.50;;
60503;Laerm;51448;51.660;5.824;2023-08-20T12:18:05;45.07;31.36;56.92;;
60503;Laerm;51448;51.660;5.824;2023-08-20T12:20:35;44.53;31.97;54.25;;
60503;Laerm;51448;51.660;5.824;2023-08-20T12:23:06;45.57;31.38;55.67;;
60503;Laerm;51448;51.660;5.824;2023-08-20T12:25:35;42.80;30.93;55.20;;
60503;Laerm;51448;51.660;5.824;2023-08-20T12:28:04;43.49;29.92;58.01;;
60503;Laerm;51448;51.660;5.824;2023-08-20T12:30:36;46.35;30.42;57.56;;
60503;Laerm;51448;51.660;5.824;2023-08-20T12:33:06;42.70;31.65;53.15;;
60503;Laerm;51448;51.660;5.824;2023-08-20T12:35:35;43.01;31.83;55.31;;
60503;Laerm;51448;51.660;5.824;2023-08-20T12:38:03;43.24;30.71;55.10;;
60503;Laerm;51448;51.660;5.824;2023-08-20T12:40:31;43.75;31.21;54.30;;
60503;Laerm;51448;51.660;5.824;2023-08-20T12:42:59;45.46;30.84;61.69;;
60503;Laerm;51448;51.660;5.824;2023-08-20T12:45:26;49.42;31.12;65.83;;
60503;Laerm;51448;51.660;5.824;2023-08-20T12:47:54;40.15;30.27;54.46;;
60503;Laerm;51448;51.660;5.824;2023-08-20T12:50:21;42.55;30.92;54.52;;
60503;Laerm;51448;51.660;5.824;2023-08-20T12:52:49;46.70;30.80;60.14;;
60503;Laerm;51448;51.660;5.824;2023-08-20T12:55:18;45.97;31.08;64.32;;
60503;Laerm;51448;51.660;5.824;2023-08-20T12:57:55;43.93;31.32;63.84;;
60503;Laerm;51448;51.660;5.824;2023-08-20T13:00:25;43.50;31.45;53.50;;
60503;Laerm;51448;51.660;5.824;2023-08-20T13:02:54;44.86;30.46;58.30;;
60503;Laerm;51448;51.660;5.824;2023-08-20T13:05:24;42.40;29.79;54.36;;
60503;Laerm;51448;51.660;5.824;2023-08-20T13:07:53;42.66;30.97;57.84;;
60503;Laerm;51448;51.660;5.824;2023-08-20T13:10:21;43.11;31.17;54.65;;
60503;Laerm;51448;51.660;5.824;2023-08-20T13:12:52;45.59;30.73;64.46;;
60503;Laerm;51448;51.660;5.824;2023-08-20T13:15:22;45.15;31.82;57.48;;
60503;Laerm;51448;51.660;5.824;2023-08-20T13:17:51;44.19;31.20;54.69;;
60503;Laerm;51448;51.660;5.824;2023-08-20T13:20:19;43.05;30.88;53.90;;
60503;Laerm;51448;51.660;5.824;2023-08-20T13:22:52;45.24;30.53;57.49;;
60503;Laerm;51448;51.660;5.824;2023-08-20T13:25:20;40.91;29.62;58.01;;
60503;Laerm;51448;51.660;5.824;2023-08-20T13:27:51;41.63;30.62;53.36;;
60503;Laerm;51448;51.660;5.824;2023-08-20T13:30:18;40.87;30.96;51.41;;
60503;Laerm;51448;51.660;5.824;2023-08-20T13:32:49;42.17;30.01;55.20;;
60503;Laerm;51448;51.660;5.824;2023-08-20T13:35:17;41.71;31.47;53.17;;
60503;Laerm;51448;51.660;5.824;2023-08-20T13:37:45;43.03;30.59;59.99;;
60503;Laerm;51448;51.660;5.824;2023-08-20T13:40:13;43.38;30.71;56.38;;
60503;Laerm;51448;51.660;5.824;2023-08-20T13:42:40;45.71;31.19;64.89;;
60503;Laerm;51448;51.660;5.824;2023-08-20T13:45:08;42.04;31.04;61.99;;
60503;Laerm;51448;51.660;5.824;2023-08-20T13:47:36;45.05;31.73;53.99;;
60503;Laerm;51448;51.660;5.824;2023-08-20T13:50:04;46.16;30.82;73.41;;
60503;Laerm;51448;51.660;5.824;2023-08-20T13:52:32;42.53;30.68;57.62;;
60503;Laerm;51448;51.660;5.824;2023-08-20T13:54:59;43.79;30.98;54.61;;
60503;Laerm;51448;51.660;5.824;2023-08-20T13:57:27;46.07;32.69;60.28;;
60503;Laerm;51448;51.660;5.824;2023-08-20T13:59:55;42.78;30.97;66.28;;
60503;Laerm;51448;51.660;5.824;2023-08-20T14:02:23;43.57;31.22;58.01;;